Time;durP1;ratioP1;P1;durP2;ratioP2;P2;SDS_P1;SDS_P2;PMS_P1;PMS_P2;Temp;Humidity;BMP_temperature;BMP_pressure;BME280_temperature;BME280_humidity;BME280_pressure;Samples;Min_cycle;Max_cycle;Signal;HPM_P1;HPM_P2
2023/09/11 00:01:23;;;;;;;19.83;12.73;;;19.10;1.00;;;;;;5049713;28;20398;-75
2023/09/11 00:03:49;;;;;;;25.17;13.82;;;19.10;1.00;;;;;;5048892;28;20451;-75
2023/09/11 00:06:15;;;;;;;20.83;13.15;;;19.10;1.00;;;;;;5027322;28;20055;-75
2023/09/11 00:08:41;;;;;;;27.15;14.15;;;19.10;1.00;;;;;;5031938;28;20273;-75
2023/09/11 00:11:07;;;;;;;20.88;12.68;;;19.00;1.00;;;;;;5027413;28;20098;-75
2023/09/11 00:13:33;;;;;;;19.75;12.75;;;19.00;1.00;;;;;;5026309;28;20491;-75
2023/09/11 00:15:59;;;;;;;20.05;13.48;;;19.00;1.00;;;;;;5034880;28;20065;-75
2023/09/11 00:18:25;;;;;;;23.42;13.20;;;19.00;1.00;;;;;;5029487;28;20044;-75
2023/09/11 00:20:51;;;;;;;19.48;12.82;;;19.00;1.00;;;;;;5022173;28;20124;-75
2023/09/11 00:23:17;;;;;;;23.00;13.32;;;19.00;1.00;;;;;;5041789;28;20592;-75
2023/09/11 00:25:43;;;;;;;25.75;13.15;;;19.00;1.00;;;;;;5032499;28;20513;-75
2023/09/11 00:28:09;;;;;;;20.30;13.43;;;18.90;1.00;;;;;;5031342;28;20036;-75
2023/09/11 00:30:37;;;;;;;17.75;12.63;;;18.90;1.00;;;;;;5033750;28;20137;-75
2023/09/11 00:33:04;;;;;;;20.00;12.32;;;18.90;1.00;;;;;;5025895;28;20036;-75
2023/09/11 00:35:29;;;;;;;34.67;13.93;;;18.80;1.00;;;;;;5053274;28;20039;-75
2023/09/11 00:37:55;;;;;;;22.48;13.00;;;18.90;1.00;;;;;;5025737;28;20028;-74
2023/09/11 00:40:20;;;;;;;24.80;13.52;;;18.80;1.00;;;;;;5031248;28;20081;-75
2023/09/11 00:42:46;;;;;;;16.40;11.75;;;18.80;1.00;;;;;;5046483;28;20040;-74
2023/09/11 00:45:12;;;;;;;20.70;12.43;;;18.80;1.00;;;;;;5045691;28;20045;-75
2023/09/11 00:47:43;;;;;;;19.15;12.13;;;18.80;1.00;;;;;;5048171;28;20529;-75
2023/09/11 00:50:11;;;;;;;23.30;13.15;;;18.80;1.00;;;;;;5049491;28;20201;-74
2023/09/11 00:52:37;;;;;;;24.27;13.20;;;18.80;1.00;;;;;;5032680;28;20094;-75
2023/09/11 00:55:05;;;;;;;24.63;13.63;;;18.70;1.00;;;;;;5047082;28;20040;-74
2023/09/11 00:57:31;;;;;;;21.58;13.05;;;18.70;1.00;;;;;;5031784;28;20119;-74
2023/09/11 00:59:57;;;;;;;26.80;13.02;;;18.70;1.00;;;;;;5047529;28;20125;-75
2023/09/11 01:02:23;;;;;;;22.45;12.85;;;18.70;1.00;;;;;;5059296;28;20113;-74
2023/09/11 01:04:49;;;;;;;21.60;13.75;;;18.70;1.00;;;;;;5048090;28;20029;-74
2023/09/11 01:07:16;;;;;;;28.50;14.73;;;18.70;1.00;;;;;;5046797;28;20093;-74
2023/09/11 01:09:42;;;;;;;23.38;13.35;;;18.60;1.00;;;;;;5035894;28;20041;-74
2023/09/11 01:12:08;;;;;;;16.98;12.43;;;18.70;1.00;;;;;;5037355;28;20131;-75
2023/09/11 01:14:35;;;;;;;26.13;14.13;;;18.70;1.00;;;;;;5043126;28;20044;-75
2023/09/11 01:17:32;;;;;;;21.33;13.43;;;18.60;1.00;;;;;;5036083;28;20037;-74
2023/09/11 01:20:32;;;;;;;18.88;12.23;;;18.60;1.00;;;;;;5038986;28;20129;-75
2023/09/11 01:23:19;;;;;;;23.80;13.38;;;18.60;1.00;;;;;;5044471;28;20036;-75
2023/09/11 01:26:04;;;;;;;19.50;12.38;;;18.70;1.00;;;;;;5043027;28;20037;-75
2023/09/11 01:28:46;;;;;;;23.77;13.48;;;18.60;1.00;;;;;;5063975;28;20084;-74
2023/09/11 01:31:13;;;;;;;19.42;12.13;;;18.60;1.00;;;;;;5043305;28;20044;-75
2023/09/11 01:33:38;;;;;;;23.30;12.85;;;18.60;1.00;;;;;;5030220;28;20048;-75
2023/09/11 01:36:04;;;;;;;23.00;12.48;;;18.60;1.00;;;;;;5048300;28;20040;-74
2023/09/11 01:38:30;;;;;;;21.15;11.90;;;18.60;1.00;;;;;;5033204;28;20037;-74
2023/09/11 01:40:59;;;;;;;21.92;12.85;;;18.60;1.00;;;;;;5048903;28;20117;-75
2023/09/11 01:43:30;;;;;;;19.02;12.30;;;18.60;1.00;;;;;;5038000;28;20089;-75
2023/09/11 01:45:55;;;;;;;19.10;11.73;;;18.60;1.00;;;;;;5035011;28;20085;-74
2023/09/11 01:48:22;;;;;;;20.90;12.45;;;18.70;1.00;;;;;;5040571;28;20045;-75
2023/09/11 01:50:48;;;;;;;21.25;13.15;;;18.70;1.00;;;;;;5033179;28;20666;-74
2023/09/11 01:53:14;;;;;;;19.08;12.88;;;18.70;1.00;;;;;;5042105;28;20044;-74
2023/09/11 01:55:41;;;;;;;18.98;12.57;;;18.70;1.00;;;;;;5025398;28;20103;-75
2023/09/11 01:58:07;;;;;;;19.75;13.15;;;18.70;1.00;;;;;;5043104;28;20033;-75
2023/09/11 02:00:32;;;;;;;20.70;12.90;;;18.70;1.00;;;;;;5035915;28;20492;-75
2023/09/11 02:02:58;;;;;;;20.20;12.48;;;18.70;1.00;;;;;;5046097;28;20509;-74
2023/09/11 02:05:24;;;;;;;20.85;12.98;;;18.70;1.00;;;;;;5040913;28;20094;-75
2023/09/11 02:07:50;;;;;;;20.73;12.63;;;18.70;1.00;;;;;;5030165;28;20036;-74
2023/09/11 02:10:16;;;;;;;20.00;12.10;;;18.70;1.00;;;;;;5029228;28;20049;-75
2023/09/11 02:12:42;;;;;;;20.67;12.07;;;18.60;1.00;;;;;;5043413;28;20067;-75
2023/09/11 02:15:08;;;;;;;21.50;12.77;;;18.60;1.00;;;;;;5049376;28;20086;-75
2023/09/11 02:17:33;;;;;;;24.40;12.75;;;18.60;1.00;;;;;;5039717;28;20040;-74
2023/09/11 02:19:59;;;;;;;20.90;12.63;;;18.60;1.00;;;;;;5018624;28;20068;-75
2023/09/11 02:22:25;;;;;;;20.42;13.55;;;18.60;1.00;;;;;;5029699;28;20035;-74
2023/09/11 02:24:50;;;;;;;19.58;12.63;;;18.60;1.00;;;;;;5052524;28;20044;-74
2023/09/11 02:27:16;;;;;;;23.08;13.20;;;18.60;1.00;;;;;;5055039;28;20044;-75
2023/09/11 02:29:41;;;;;;;22.73;12.48;;;18.50;1.00;;;;;;5035988;28;20032;-74
2023/09/11 02:32:07;;;;;;;20.80;12.18;;;18.40;1.00;;;;;;5026764;28;20032;-74
2023/09/11 02:34:33;;;;;;;24.27;12.18;;;18.50;1.00;;;;;;5043951;28;20131;-75
2023/09/11 02:36:58;;;;;;;20.33;12.18;;;18.50;1.00;;;;;;5028925;28;20032;-75
2023/09/11 02:39:24;;;;;;;25.42;13.00;;;18.50;1.00;;;;;;5027068;28;20806;-74
2023/09/11 02:41:49;;;;;;;21.08;12.60;;;18.40;1.00;;;;;;5029496;28;20384;-74
2023/09/11 02:44:15;;;;;;;20.35;12.10;;;18.40;1.00;;;;;;5028975;28;20159;-74
2023/09/11 02:46:43;;;;;;;26.92;12.90;;;18.40;1.00;;;;;;5031029;28;20559;-75
2023/09/11 02:49:08;;;;;;;22.95;12.80;;;18.40;1.00;;;;;;5031370;28;20117;-75
2023/09/11 02:51:34;;;;;;;23.50;12.93;;;18.40;1.00;;;;;;5044658;28;20418;-75
2023/09/11 02:54:00;;;;;;;23.15;13.00;;;18.30;1.00;;;;;;5031447;28;20493;-75
2023/09/11 02:56:25;;;;;;;23.02;12.32;;;18.30;1.00;;;;;;5030790;28;20045;-74
2023/09/11 02:58:51;;;;;;;20.00;12.25;;;18.30;1.00;;;;;;5049589;28;20032;-75
2023/09/11 03:01:17;;;;;;;21.40;11.63;;;18.30;1.00;;;;;;5059902;28;20506;-74
2023/09/11 03:03:42;;;;;;;19.48;12.65;;;18.20;1.00;;;;;;5046459;28;20032;-75
2023/09/11 03:06:08;;;;;;;21.35;12.60;;;18.20;1.00;;;;;;5044708;28;20399;-74
2023/09/11 03:08:34;;;;;;;23.98;12.95;;;18.20;1.00;;;;;;5050659;28;20115;-74
2023/09/11 03:11:08;;;;;;;20.77;12.93;;;18.10;1.00;;;;;;5020604;28;20041;-75
2023/09/11 03:13:33;;;;;;;19.65;11.57;;;18.10;1.00;;;;;;5030948;28;20036;-74
2023/09/11 03:16:14;;;;;;;21.60;12.40;;;18.10;1.00;;;;;;5038822;28;20032;-74
2023/09/11 03:18:39;;;;;;;22.65;13.10;;;18.10;1.00;;;;;;5047793;28;20089;-75
2023/09/11 03:21:07;;;;;;;29.27;13.48;;;18.10;1.00;;;;;;5047203;28;20654;-74
2023/09/11 03:23:33;;;;;;;20.75;12.02;;;18.10;1.00;;;;;;5024134;28;20051;-75
2023/09/11 03:25:59;;;;;;;20.05;11.02;;;18.10;1.00;;;;;;5026044;28;20037;-75
2023/09/11 03:28:30;;;;;;;20.77;13.05;;;18.00;1.00;;;;;;5016723;28;20056;-75
2023/09/11 03:30:56;;;;;;;22.02;12.40;;;18.00;1.00;;;;;;5064436;28;20521;-75
2023/09/11 03:33:22;;;;;;;26.80;13.48;;;18.10;1.00;;;;;;5041215;28;20097;-74
2023/09/11 03:35:48;;;;;;;19.88;12.00;;;18.00;1.00;;;;;;5050832;28;20032;-75
2023/09/11 03:38:14;;;;;;;23.55;12.55;;;18.00;1.00;;;;;;5051390;28;20071;-75
2023/09/11 03:40:42;;;;;;;25.25;13.27;;;18.00;1.00;;;;;;5030200;28;20085;-75
2023/09/11 03:43:08;;;;;;;29.73;13.30;;;18.00;1.00;;;;;;5025672;28;20045;-75
2023/09/11 03:45:34;;;;;;;25.20;12.65;;;18.10;1.00;;;;;;5031762;28;20083;-75
2023/09/11 03:48:00;;;;;;;21.88;11.82;;;18.10;1.00;;;;;;5031529;28;20105;-75
2023/09/11 03:50:25;;;;;;;20.20;12.82;;;18.10;1.00;;;;;;5013177;28;20084;-75
2023/09/11 03:52:51;;;;;;;18.70;12.27;;;18.10;1.00;;;;;;5025659;28;20414;-75
2023/09/11 03:55:17;;;;;;;19.73;11.90;;;18.10;1.00;;;;;;5020255;28;20037;-75
2023/09/11 03:57:43;;;;;;;21.17;11.77;;;18.10;1.00;;;;;;5025204;28;20045;-75
2023/09/11 04:00:09;;;;;;;19.98;11.77;;;18.10;1.00;;;;;;5029689;28;20049;-75
2023/09/11 04:02:35;;;;;;;24.67;12.80;;;18.10;1.00;;;;;;5014625;28;20093;-75
2023/09/11 04:05:01;;;;;;;26.23;12.50;;;18.10;1.00;;;;;;5023840;28;20591;-75
2023/09/11 04:07:26;;;;;;;19.50;12.13;;;18.00;1.00;;;;;;5014864;28;20120;-75
2023/09/11 04:09:52;;;;;;;23.30;13.02;;;18.00;1.00;;;;;;5026681;28;20037;-75
2023/09/11 04:12:17;;;;;;;18.90;12.05;;;17.90;1.00;;;;;;5010797;28;20037;-75
2023/09/11 04:14:43;;;;;;;22.30;11.98;;;17.90;1.00;;;;;;5013725;28;21699;-74
2023/09/11 04:17:10;;;;;;;21.73;11.32;;;17.80;1.00;;;;;;5032591;28;20120;-75
2023/09/11 04:19:39;;;;;;;19.88;12.30;;;17.80;1.00;;;;;;5029243;28;20056;-74
2023/09/11 04:22:05;;;;;;;25.50;12.00;;;17.90;1.00;;;;;;5042412;28;20029;-75
2023/09/11 04:24:32;;;;;;;24.05;12.73;;;17.80;1.00;;;;;;5020628;28;20144;-75
2023/09/11 04:26:57;;;;;;;22.05;11.93;;;17.80;1.00;;;;;;5003346;28;20522;-75
2023/09/11 04:29:24;;;;;;;21.30;12.35;;;17.80;1.00;;;;;;5006340;28;20048;-75
2023/09/11 04:31:50;;;;;;;16.30;11.32;;;17.80;1.00;;;;;;5011965;28;20044;-75
2023/09/11 04:34:16;;;;;;;23.63;12.25;;;17.70;3.20;;;;;;5023229;28;20124;-75
2023/09/11 04:36:42;;;;;;;22.55;12.68;;;17.70;4.40;;;;;;5024846;28;20037;-74
2023/09/11 04:39:08;;;;;;;29.02;13.43;;;17.70;8.60;;;;;;5014038;28;20029;-75
2023/09/11 04:41:33;;;;;;;24.35;12.70;;;17.70;10.00;;;;;;5046072;28;20052;-75
2023/09/11 04:43:59;;;;;;;18.95;11.88;;;17.70;8.70;;;;;;5040404;28;20102;-75
2023/09/11 04:46:24;;;;;;;19.98;12.07;;;17.70;10.60;;;;;;5045806;28;20044;-76
2023/09/11 04:48:50;;;;;;;24.30;11.35;;;17.70;12.20;;;;;;5033534;28;20049;-76
2023/09/11 04:51:16;;;;;;;19.73;12.55;;;17.60;14.80;;;;;;5029694;28;20544;-75
2023/09/11 04:53:41;;;;;;;22.80;12.50;;;17.60;18.00;;;;;;5048321;28;20036;-75
2023/09/11 04:56:07;;;;;;;22.58;12.60;;;17.60;21.00;;;;;;5032199;28;20036;-75
2023/09/11 04:58:33;;;;;;;19.67;12.85;;;17.50;24.30;;;;;;5028858;28;20040;-75
2023/09/11 05:00:58;;;;;;;23.17;12.75;;;17.60;27.30;;;;;;5024618;28;20033;-75
2023/09/11 05:03:24;;;;;;;24.05;11.80;;;17.50;28.10;;;;;;5044403;28;20049;-76
2023/09/11 05:05:50;;;;;;;23.20;11.80;;;17.50;28.70;;;;;;5023802;28;20044;-75
2023/09/11 05:08:16;;;;;;;21.92;12.25;;;17.50;30.40;;;;;;5034806;28;20048;-75
2023/09/11 05:10:42;;;;;;;20.60;12.35;;;17.50;36.80;;;;;;5031434;28;20052;-75
2023/09/11 05:13:09;;;;;;;22.60;12.40;;;17.50;39.00;;;;;;5043774;28;20981;-74
2023/09/11 05:15:35;;;;;;;23.30;12.70;;;17.50;41.90;;;;;;5028427;28;20037;-75
2023/09/11 05:18:02;;;;;;;23.95;12.98;;;17.50;43.60;;;;;;5030221;28;20044;-75
2023/09/11 05:20:27;;;;;;;21.05;12.30;;;17.50;46.00;;;;;;5032911;28;20062;-75
2023/09/11 05:22:53;;;;;;;23.50;12.55;;;17.60;51.10;;;;;;5033659;28;20040;-75
2023/09/11 05:25:20;;;;;;;22.15;12.07;;;17.60;53.00;;;;;;5029356;28;20736;-75
2023/09/11 05:27:46;;;;;;;23.20;12.70;;;17.60;50.70;;;;;;5041871;28;20132;-75
2023/09/11 05:30:13;;;;;;;22.65;13.00;;;17.60;51.80;;;;;;5047795;28;20135;-75
2023/09/11 05:32:38;;;;;;;22.67;12.65;;;17.70;53.90;;;;;;5033575;28;20709;-76
2023/09/11 05:35:06;;;;;;;24.83;12.32;;;17.70;54.20;;;;;;5033541;28;20119;-75
2023/09/11 05:37:31;;;;;;;23.13;11.82;;;17.70;56.30;;;;;;5026581;28;20094;-76
2023/09/11 05:39:57;;;;;;;22.95;13.23;;;17.80;56.00;;;;;;5029250;28;20056;-75
2023/09/11 05:42:22;;;;;;;20.15;12.95;;;17.80;56.30;;;;;;5028249;28;20489;-75
2023/09/11 05:44:48;;;;;;;20.42;13.05;;;17.90;55.70;;;;;;5025213;28;20414;-75
2023/09/11 05:47:14;;;;;;;24.60;12.95;;;18.00;53.40;;;;;;5037501;28;20048;-76
2023/09/11 05:49:40;;;;;;;31.73;13.50;;;18.00;50.80;;;;;;5035587;28;20048;-75
2023/09/11 05:52:06;;;;;;;24.45;13.68;;;18.10;49.60;;;;;;5026774;28;20115;-77
2023/09/11 05:54:33;;;;;;;20.67;12.70;;;18.20;51.60;;;;;;5028294;28;20084;-77
2023/09/11 05:57:01;;;;;;;22.52;11.95;;;18.30;58.90;;;;;;5026221;28;20071;-76
2023/09/11 05:59:27;;;;;;;19.17;12.38;;;18.40;66.30;;;;;;5031308;28;20044;-76
2023/09/11 06:01:52;;;;;;;21.63;11.75;;;18.60;74.60;;;;;;5039965;28;20039;-76
2023/09/11 06:04:18;;;;;;;21.25;12.40;;;18.70;82.40;;;;;;5049269;28;20044;-77
2023/09/11 06:06:44;;;;;;;20.17;11.77;;;18.90;88.90;;;;;;5027576;28;20040;-76
2023/09/11 06:09:09;;;;;;;22.85;11.05;;;19.00;91.10;;;;;;5047882;28;20543;-76
2023/09/11 06:11:35;;;;;;;23.52;11.18;;;19.20;94.10;;;;;;5031823;28;20048;-76
2023/09/11 06:14:01;;;;;;;17.42;11.38;;;19.30;93.60;;;;;;5044092;28;20173;-77
2023/09/11 06:16:27;;;;;;;19.27;10.75;;;19.40;93.20;;;;;;5041677;28;20534;-77
2023/09/11 06:18:53;;;;;;;22.40;10.68;;;19.60;93.40;;;;;;5032398;28;20135;-77
2023/09/11 06:21:19;;;;;;;21.38;11.05;;;19.60;88.60;;;;;;5030902;28;20523;-76
2023/09/11 06:23:44;;;;;;;18.50;10.30;;;19.80;69.80;;;;;;5050041;28;20037;-77
2023/09/11 06:26:10;;;;;;;22.75;10.18;;;19.80;46.10;;;;;;5023104;28;20083;-76
2023/09/11 06:28:36;;;;;;;24.08;11.07;;;19.90;19.70;;;;;;5031738;28;20047;-77
2023/09/11 06:31:02;;;;;;;26.27;11.52;;;19.90;1.00;;;;;;5026876;28;20041;-77
2023/09/11 06:33:27;;;;;;;20.95;11.52;;;20.00;1.00;;;;;;5034285;28;20028;-76
2023/09/11 06:35:54;;;;;;;20.80;12.05;;;20.10;1.00;;;;;;5027297;28;20424;-77
2023/09/11 06:38:20;;;;;;;24.23;11.05;;;20.10;1.00;;;;;;5024249;28;20094;-75
2023/09/11 06:40:45;;;;;;;24.88;11.10;;;20.10;1.00;;;;;;5028832;28;20053;-76
2023/09/11 06:43:11;;;;;;;20.17;10.95;;;20.20;1.00;;;;;;5042840;28;20060;-77
2023/09/11 06:45:38;;;;;;;20.55;10.73;;;20.30;1.00;;;;;;5049613;28;20540;-76
2023/09/11 06:48:05;;;;;;;25.60;11.75;;;20.40;1.00;;;;;;5030471;28;20036;-76
2023/09/11 06:50:30;;;;;;;23.33;10.95;;;20.40;1.00;;;;;;5037965;28;20395;-78
2023/09/11 06:52:56;;;;;;;25.38;11.63;;;20.50;1.00;;;;;;5031896;28;20074;-77
2023/09/11 06:55:22;;;;;;;20.35;10.07;;;20.50;1.00;;;;;;5047339;28;20037;-78
2023/09/11 06:58:00;;;;;;;22.02;11.18;;;20.60;1.00;;;;;;5024834;28;20028;-77
2023/09/11 07:00:25;;;;;;;19.98;10.55;;;20.60;1.00;;;;;;5024310;28;20045;-77
2023/09/11 07:02:51;;;;;;;24.75;10.20;;;20.70;1.00;;;;;;5024686;28;20430;-77
2023/09/11 07:05:18;;;;;;;16.92;9.45;;;20.80;1.00;;;;;;5047001;28;20581;-77
2023/09/11 07:07:44;;;;;;;19.85;10.02;;;20.90;99.90;;;;;;5031702;28;20041;-77
2023/09/11 07:10:11;;;;;;;25.20;9.73;;;21.00;99.90;;;;;;5030998;28;20222;-77
2023/09/11 07:12:44;;;;;;;19.02;9.07;;;21.10;99.90;;;;;;5041693;28;20538;-77
2023/09/11 07:15:10;;;;;;;20.33;9.43;;;21.20;99.90;;;;;;5030726;28;20395;-76
2023/09/11 07:17:35;;;;;;;19.55;9.75;;;21.30;99.90;;;;;;5032120;28;20033;-77
2023/09/11 07:20:04;;;;;;;16.95;9.45;;;21.40;99.90;;;;;;5031076;28;20521;-77
2023/09/11 07:22:30;;;;;;;15.15;9.57;;;21.50;99.90;;;;;;5022128;28;20037;-76
2023/09/11 07:24:55;;;;;;;17.42;9.88;;;21.60;99.90;;;;;;5049238;28;20669;-77
2023/09/11 07:27:21;;;;;;;18.50;9.27;;;21.70;99.90;;;;;;5043865;28;20060;-77
2023/09/11 07:29:48;;;;;;;14.70;9.10;;;21.70;99.90;;;;;;5045463;28;20127;-76
2023/09/11 07:32:14;;;;;;;16.80;8.35;;;21.80;99.90;;;;;;5028617;28;20059;-77
2023/09/11 07:34:40;;;;;;;24.60;9.52;;;21.80;99.90;;;;;;5030397;28;20036;-78
2023/09/11 07:37:06;;;;;;;13.02;9.00;;;21.80;99.90;;;;;;5045874;28;20505;-76
2023/09/11 07:39:31;;;;;;;17.17;8.52;;;22.00;99.90;;;;;;5029287;28;20032;-76
2023/09/11 07:41:58;;;;;;;16.15;8.40;;;22.00;99.90;;;;;;5031596;28;20091;-75
2023/09/11 07:44:23;;;;;;;18.95;9.93;;;22.10;99.90;;;;;;5052719;28;20132;-76
2023/09/11 07:46:49;;;;;;;19.02;9.02;;;22.10;71.30;;;;;;5041886;28;20474;-76
2023/09/11 07:49:14;;;;;;;15.40;8.93;;;22.20;21.10;;;;;;5033480;28;20071;-76
2023/09/11 07:51:40;;;;;;;15.32;8.98;;;22.30;1.00;;;;;;5027740;28;20040;-78
2023/09/11 07:54:06;;;;;;;21.30;9.10;;;22.30;1.00;;;;;;5022509;28;20538;-76
2023/09/11 07:56:33;;;;;;;16.85;8.40;;;22.40;1.00;;;;;;5024223;28;20051;-76
2023/09/11 07:59:00;;;;;;;22.15;9.50;;;22.60;1.00;;;;;;5025322;28;20095;-76
2023/09/11 08:01:26;;;;;;;17.45;8.82;;;22.70;1.00;;;;;;5025045;28;20098;-75
2023/09/11 08:03:52;;;;;;;15.07;7.65;;;22.70;1.00;;;;;;5044312;28;20045;-74
2023/09/11 08:06:18;;;;;;;13.95;8.10;;;22.80;1.00;;;;;;5051010;28;20048;-76
2023/09/11 08:08:44;;;;;;;16.77;7.90;;;22.90;1.00;;;;;;5016512;28;20426;-77
2023/09/11 08:11:15;;;;;;;18.92;8.30;;;23.00;1.00;;;;;;5044439;28;20044;-75
2023/09/11 08:13:42;;;;;;;17.85;7.07;;;23.00;99.90;;;;;;5028647;28;20164;-77
2023/09/11 08:16:08;;;;;;;14.68;7.47;;;23.10;99.90;;;;;;5031863;28;20617;-77
2023/09/11 08:18:34;;;;;;;14.60;7.25;;;23.30;99.90;;;;;;5042274;28;20108;-77
2023/09/11 08:21:00;;;;;;;16.17;7.90;;;23.40;99.90;;;;;;5023456;28;20043;-77
2023/09/11 08:23:25;;;;;;;12.57;6.45;;;23.50;99.90;;;;;;5039964;28;20043;-77
2023/09/11 08:25:56;;;;;;;13.23;6.72;;;23.50;99.90;;;;;;5027473;28;20511;-76
2023/09/11 08:28:21;;;;;;;17.33;6.95;;;23.60;99.90;;;;;;5037851;28;20059;-77
2023/09/11 08:30:47;;;;;;;11.43;6.57;;;23.70;99.90;;;;;;5027279;28;20036;-76
2023/09/11 08:33:12;;;;;;;15.75;7.07;;;23.70;99.90;;;;;;5033010;28;20092;-77
2023/09/11 08:35:38;;;;;;;10.48;6.30;;;23.90;99.90;;;;;;5032471;28;20044;-77
2023/09/11 08:38:04;;;;;;;13.77;6.50;;;24.00;99.90;;;;;;5048971;28;20414;-77
2023/09/11 08:40:30;;;;;;;13.13;6.50;;;24.20;99.90;;;;;;5044597;28;20171;-77
2023/09/11 08:42:57;;;;;;;14.43;6.72;;;24.30;99.90;;;;;;5046758;28;20048;-75
2023/09/11 08:45:25;;;;;;;12.30;6.40;;;24.50;99.90;;;;;;5034062;28;20036;-78
2023/09/11 08:47:54;;;;;;;12.98;6.20;;;24.50;99.90;;;;;;5044022;28;20135;-78
2023/09/11 08:50:22;;;;;;;15.35;6.65;;;24.70;99.90;;;;;;5030503;28;20090;-78
2023/09/11 08:52:49;;;;;;;12.02;5.72;;;24.90;99.90;;;;;;5030941;28;20036;-78
2023/09/11 08:55:18;;;;;;;10.63;6.00;;;25.00;99.90;;;;;;5034521;28;20047;-77
2023/09/11 08:57:44;;;;;;;18.73;6.28;;;25.10;93.60;;;;;;5035657;28;20079;-77
2023/09/11 09:00:13;;;;;;;11.38;5.97;;;25.30;60.80;;;;;;5034109;28;20029;-78
2023/09/11 09:02:43;;;;;;;10.65;6.32;;;25.50;30.30;;;;;;5035485;28;20113;-77
2023/09/11 09:05:09;;;;;;;11.50;5.70;;;25.70;10.80;;;;;;5032315;28;20590;-77
2023/09/11 09:07:35;;;;;;;12.27;5.80;;;25.80;10.70;;;;;;5045356;28;20034;-77
2023/09/11 09:10:03;;;;;;;11.32;6.05;;;25.90;1.30;;;;;;5026943;28;20460;-78
2023/09/11 09:12:29;;;;;;;8.70;5.57;;;25.90;1.00;;;;;;5040228;28;20045;-78
2023/09/11 09:14:55;;;;;;;10.02;5.68;;;26.00;1.00;;;;;;5045829;28;20048;-77
2023/09/11 09:17:23;;;;;;;16.05;7.15;;;26.10;1.00;;;;;;5034928;28;20040;-77
2023/09/11 09:19:49;;;;;;;11.05;5.88;;;26.20;1.00;;;;;;5048417;28;20115;-77
2023/09/11 09:22:16;;;;;;;16.10;7.15;;;26.20;1.00;;;;;;5048932;28;20120;-78
2023/09/11 09:24:55;;;;;;;13.45;6.13;;;26.50;1.00;;;;;;5043714;28;20147;-77
2023/09/11 09:27:24;;;;;;;16.50;6.45;;;26.70;1.00;;;;;;5029785;28;20037;-79
2023/09/11 09:29:51;;;;;;;12.93;7.03;;;26.90;1.00;;;;;;5051643;28;20051;-79
2023/09/11 09:32:17;;;;;;;11.52;6.57;;;27.20;1.00;;;;;;5052054;28;20069;-79
2023/09/11 09:34:50;;;;;;;11.48;5.72;;;27.80;1.00;;;;;;5039955;28;20049;-78
2023/09/11 09:37:17;;;;;;;11.77;5.68;;;29.20;1.00;;;;;;5027372;28;20068;-78
2023/09/11 09:39:48;;;;;;;9.25;5.90;;;30.30;1.00;;;;;;5049255;28;20711;-79
2023/09/11 09:42:15;;;;;;;9.18;5.45;;;31.20;1.00;;;;;;5026661;28;20045;-78
2023/09/11 09:44:48;;;;;;;9.30;5.60;;;31.90;1.00;;;;;;5053726;28;20075;-78
2023/09/11 09:47:19;;;;;;;11.55;4.97;;;32.30;1.00;;;;;;5031252;28;20040;-79
2023/09/11 09:49:48;;;;;;;11.07;5.72;;;32.60;1.00;;;;;;5023023;28;20403;-79
2023/09/11 09:52:15;;;;;;;9.95;5.30;;;32.70;1.00;;;;;;5028970;28;20515;-79
2023/09/11 09:54:45;;;;;;;8.32;5.22;;;33.00;1.00;;;;;;5022940;28;20130;-79
2023/09/11 09:57:16;;;;;;;8.32;4.93;;;33.50;1.00;;;;;;5041323;28;20045;-79
2023/09/11 09:59:43;;;;;;;11.27;5.90;;;34.00;1.00;;;;;;5036523;28;20048;-79
2023/09/11 10:02:13;;;;;;;11.20;5.38;;;34.60;1.00;;;;;;5049145;28;20047;-79
2023/09/11 10:04:39;;;;;;;12.20;5.75;;;35.20;1.00;;;;;;5030180;28;20610;-79
2023/09/11 10:07:06;;;;;;;11.90;5.45;;;35.70;1.00;;;;;;5032482;28;20033;-79
2023/09/11 10:09:33;;;;;;;9.05;6.03;;;36.10;1.00;;;;;;5029357;28;20040;-79
2023/09/11 10:12:04;;;;;;;13.23;5.68;;;36.10;1.00;;;;;;5029932;28;20121;-79
2023/09/11 10:14:30;;;;;;;10.02;5.43;;;36.10;1.00;;;;;;5040455;28;20480;-79
2023/09/11 10:16:59;;;;;;;13.95;6.20;;;36.00;1.00;;;;;;5022549;28;20065;-78
2023/09/11 10:19:28;;;;;;;8.02;5.03;;;35.80;1.00;;;;;;5046340;28;20059;-79
2023/09/11 10:21:54;;;;;;;9.27;5.13;;;35.20;1.00;;;;;;5035333;28;20561;-79
2023/09/11 10:24:19;;;;;;;10.63;5.00;;;35.10;1.00;;;;;;5029994;28;20123;-79
2023/09/11 10:26:56;;;;;;;9.00;5.85;;;35.30;1.00;;;;;;5033476;28;20051;-79
2023/09/11 10:29:27;;;;;;;8.35;5.10;;;35.20;1.00;;;;;;5044804;28;20078;-78
2023/09/11 10:32:04;;;;;;;10.85;5.22;;;35.10;1.00;;;;;;5029404;28;20406;-78
2023/09/11 10:34:31;;;;;;;9.73;5.78;;;35.40;1.00;;;;;;5043896;28;20902;-78
2023/09/11 10:36:59;;;;;;;6.95;4.97;;;36.00;1.00;;;;;;5029627;28;20115;-78
2023/09/11 10:39:25;;;;;;;6.97;4.60;;;36.10;1.00;;;;;;5028309;28;20098;-79
2023/09/11 10:41:51;;;;;;;13.82;5.85;;;36.40;1.00;;;;;;5026288;28;20105;-79
2023/09/11 10:44:17;;;;;;;7.72;5.65;;;36.40;1.00;;;;;;5045427;28;20040;-78
2023/09/11 10:46:51;;;;;;;9.63;5.57;;;36.50;1.00;;;;;;5068288;28;20065;-78
2023/09/11 10:49:18;;;;;;;7.60;5.20;;;36.10;1.00;;;;;;5046699;28;20051;-79
2023/09/11 10:51:46;;;;;;;9.38;5.05;;;35.90;1.00;;;;;;5031470;28;20114;-78
2023/09/11 10:54:14;;;;;;;9.20;5.57;;;35.90;1.00;;;;;;5039139;28;20061;-80
2023/09/11 10:56:42;;;;;;;13.05;6.35;;;36.00;1.00;;;;;;5033903;28;20036;-79
2023/09/11 10:59:09;;;;;;;10.55;5.53;;;35.70;1.00;;;;;;5028958;28;20086;-79
2023/09/11 11:01:36;;;;;;;11.40;5.80;;;35.70;1.00;;;;;;5039374;28;20028;-79
2023/09/11 11:04:05;;;;;;;8.48;6.07;;;35.60;1.00;;;;;;5032354;28;20123;-79
2023/09/11 11:06:32;;;;;;;10.30;5.85;;;35.80;1.00;;;;;;5041738;28;20076;-79
2023/09/11 11:08:59;;;;;;;8.35;6.10;;;36.00;1.00;;;;;;5042688;28;20036;-79
2023/09/11 11:11:31;;;;;;;10.07;6.22;;;36.20;1.00;;;;;;5035716;28;20414;-79
2023/09/11 11:14:15;;;;;;;10.20;6.10;;;36.40;1.00;;;;;;5046879;28;20513;-79
2023/09/11 11:17:10;;;;;;;10.20;5.95;;;36.90;1.00;;;;;;5033463;28;20044;-79
2023/09/11 11:19:46;;;;;;;7.90;5.88;;;36.90;1.00;;;;;;5017022;28;20083;-79
2023/09/11 11:22:30;;;;;;;11.48;5.68;;;37.10;1.00;;;;;;5033634;28;20044;-78
2023/09/11 11:24:58;;;;;;;10.40;6.43;;;37.40;1.00;;;;;;5030241;28;20055;-79
2023/09/11 11:27:23;;;;;;;9.18;5.28;;;37.70;1.00;;;;;;5043080;28;20032;-79
2023/09/11 11:29:50;;;;;;;8.60;5.93;;;37.70;1.00;;;;;;5029163;28;20082;-79
2023/09/11 11:32:20;;;;;;;11.15;6.78;;;38.20;1.00;;;;;;5031152;28;20773;-78
2023/09/11 11:34:50;;;;;;;7.57;5.47;;;38.60;1.00;;;;;;5026425;28;20048;-79
2023/09/11 11:37:20;;;;;;;7.35;4.95;;;38.50;1.00;;;;;;5028371;28;20032;-79
2023/09/11 11:39:47;;;;;;;9.82;5.30;;;38.60;1.00;;;;;;5048204;28;20044;-79
2023/09/11 11:42:13;;;;;;;8.90;5.80;;;38.10;1.00;;;;;;5033695;28;20033;-79
2023/09/11 11:44:41;;;;;;;13.35;5.72;;;37.80;1.00;;;;;;5035212;28;20052;-78
2023/09/11 11:47:07;;;;;;;12.55;5.80;;;37.80;1.00;;;;;;5044420;28;20047;-79
2023/09/11 11:49:36;;;;;;;10.88;5.85;;;37.90;1.00;;;;;;5030781;28;20550;-80
2023/09/11 11:52:03;;;;;;;8.30;5.32;;;38.00;1.00;;;;;;5064878;28;20131;-79
2023/09/11 11:54:29;;;;;;;9.38;6.10;;;38.10;1.00;;;;;;5033766;28;20032;-79
2023/09/11 11:57:01;;;;;;;8.05;5.38;;;37.70;1.00;;;;;;5046717;28;20063;-79
2023/09/11 11:59:32;;;;;;;7.25;5.85;;;37.70;1.00;;;;;;5036030;28;20086;-79
2023/09/11 12:01:58;;;;;;;7.97;5.13;;;37.60;1.00;;;;;;5040873;28;20431;-79
2023/09/11 12:04:24;;;;;;;9.10;6.18;;;38.20;1.00;;;;;;5045016;28;20131;-79
2023/09/11 12:06:53;;;;;;;7.68;4.97;;;38.40;1.00;;;;;;5043437;28;20719;-79
2023/09/11 12:09:20;;;;;;;7.15;3.85;;;38.30;1.00;;;;;;5041256;28;20040;-79
2023/09/11 12:11:46;;;;;;;10.85;4.20;;;38.60;1.00;;;;;;5040229;28;20036;-79
2023/09/11 12:14:13;;;;;;;10.23;4.20;;;38.50;1.00;;;;;;5029303;28;20094;-79
2023/09/11 12:16:39;;;;;;;6.70;3.70;;;38.60;1.00;;;;;;5061290;28;20037;-79
2023/09/11 12:19:05;;;;;;;5.63;3.03;;;38.30;1.00;;;;;;5035610;28;20040;-80
2023/09/11 12:21:31;;;;;;;3.60;3.20;;;38.10;1.00;;;;;;5052071;28;20040;-79
2023/09/11 12:23:59;;;;;;;4.95;3.58;;;37.70;1.00;;;;;;5040882;28;20075;-79
2023/09/11 12:26:27;;;;;;;5.45;3.50;;;37.30;1.00;;;;;;5058530;28;20044;-79
2023/09/11 12:28:54;;;;;;;9.45;4.22;;;37.20;1.00;;;;;;5044856;28;20087;-79
2023/09/11 12:31:20;;;;;;;6.53;3.95;;;37.50;1.00;;;;;;5052952;28;20046;-79
2023/09/11 12:33:53;;;;;;;5.60;3.53;;;37.60;1.00;;;;;;5060815;28;20579;-80
2023/09/11 12:36:22;;;;;;;7.00;3.50;;;37.80;1.00;;;;;;5043455;28;20040;-79
2023/09/11 12:38:49;;;;;;;7.15;3.13;;;38.10;1.00;;;;;;5036055;28;20094;-79
2023/09/11 12:41:16;;;;;;;6.75;3.05;;;38.60;1.00;;;;;;5057321;28;20123;-79